createdAt,value
2023-01-02T00:00:21.687Z,82.58
2023-01-02T00:02:48.669Z,82.44
2023-01-02T00:05:15.653Z,81.56
2023-01-02T00:07:42.453Z,82.13
2023-01-02T00:10:10.034Z,82.61
2023-01-02T00:12:37.007Z,82.26
2023-01-02T00:15:04.446Z,82.19
2023-01-02T00:17:31.253Z,81.74
2023-01-02T00:19:58.319Z,81.89
2023-01-02T00:22:25.152Z,82.30
2023-01-02T00:24:51.994Z,82.24
2023-01-02T00:27:18.866Z,82.30
2023-01-02T00:29:45.877Z,82.40
2023-01-02T00:32:12.681Z,81.81
2023-01-02T00:34:39.459Z,82.14
2023-01-02T00:37:06.268Z,81.57
2023-01-02T00:39:33.014Z,82.15
2023-01-02T00:41:59.844Z,81.60
2023-01-02T00:44:26.597Z,81.24
2023-01-02T00:46:53.464Z,81.20
2023-01-02T00:49:20.429Z,81.93
2023-01-02T00:51:47.213Z,81.65
2023-01-02T00:54:14.517Z,81.20
2023-01-02T00:56:41.624Z,82.33
2023-01-02T00:59:08.488Z,81.37
2023-01-02T01:01:35.399Z,81.66
2023-01-02T01:04:02.377Z,82.40
2023-01-02T01:06:29.324Z,81.67
2023-01-02T01:08:56.177Z,81.25
2023-01-02T01:11:23.084Z,81.62
2023-01-02T01:13:49.853Z,82.11
2023-01-02T01:16:17.282Z,82.01
2023-01-02T01:18:44.305Z,81.17
2023-01-02T01:21:12.485Z,81.37
2023-01-02T01:23:39.285Z,82.22
2023-01-02T01:26:06.646Z,81.53
2023-01-02T01:28:33.415Z,81.43
2023-01-02T01:31:07.358Z,81.98
2023-01-02T01:33:35.414Z,81.33
2023-01-02T01:36:03.146Z,81.69
2023-01-02T01:38:30.054Z,82.41
2023-01-02T01:40:56.874Z,81.91
2023-01-02T01:43:35.770Z,81.91
2023-01-02T01:46:02.735Z,81.96
2023-01-02T01:48:29.567Z,82.24
2023-01-02T01:50:56.332Z,81.21
2023-01-02T01:53:23.224Z,82.59
2023-01-02T01:55:54.099Z,82.45
2023-01-02T01:58:21.643Z,81.44
2023-01-02T02:00:49.256Z,82.02
2023-01-02T02:03:17.173Z,81.46
2023-01-02T02:05:44.018Z,82.07
2023-01-02T02:08:18.562Z,82.04
2023-01-02T02:10:45.443Z,81.94
2023-01-02T02:13:12.478Z,81.69
2023-01-02T02:15:57.749Z,82.12
2023-01-02T02:18:39.834Z,81.35
2023-01-02T02:21:21.471Z,81.85
2023-01-02T02:24:08.541Z,81.61
2023-01-02T02:26:41.521Z,82.32
2023-01-02T02:29:34.798Z,81.88
2023-01-02T02:32:20.336Z,82.59
2023-01-02T02:34:53.222Z,81.60
2023-01-02T02:37:26.128Z,81.92
2023-01-02T02:40:01.859Z,82.69
2023-01-02T02:42:32.020Z,81.47
2023-01-02T02:45:02.769Z,81.98
2023-01-02T02:47:37.612Z,81.64
2023-01-02T02:50:24.665Z,82.52
2023-01-02T02:52:57.648Z,81.47
2023-01-02T02:55:32.049Z,82.23
2023-01-02T02:57:58.836Z,81.67
2023-01-02T03:00:25.685Z,81.96
2023-01-02T03:02:52.565Z,81.34
2023-01-02T03:05:28.778Z,81.76
2023-01-02T03:08:01.682Z,81.74
2023-01-02T03:10:31.538Z,81.88
2023-01-02T03:13:14.640Z,81.77
2023-01-02T03:15:44.554Z,82.31
2023-01-02T03:18:23.852Z,82.25
2023-01-02T03:20:58.222Z,82.51
2023-01-02T03:23:25.252Z,82.15
2023-01-02T03:25:52.315Z,82.44
2023-01-02T03:28:19.953Z,82.87
2023-01-02T03:30:47.016Z,82.02
2023-01-02T03:33:14.612Z,82.19
2023-01-02T03:35:42.704Z,82.33
2023-01-02T03:38:10.723Z,82.33
2023-01-02T03:40:48.561Z,82.97
2023-01-02T03:43:16.888Z,83.34
2023-01-02T03:45:45.790Z,82.28
2023-01-02T03:48:31.315Z,82.23
2023-01-02T03:50:59.445Z,82.13
2023-01-02T03:53:26.245Z,82.75
2023-01-02T03:55:58.394Z,82.06
2023-01-02T03:58:28.037Z,82.64
2023-01-02T04:00:56.894Z,82.47
2023-01-02T04:03:29.141Z,82.60
2023-01-02T04:06:06.731Z,82.49
2023-01-02T04:08:38.461Z,82.24
2023-01-02T04:11:05.673Z,82.55
2023-01-02T04:13:49.036Z,82.41
2023-01-02T04:16:17.416Z,83.06
2023-01-02T04:18:47.092Z,82.05
2023-01-02T04:21:15.724Z,82.51
2023-01-02T04:23:43.557Z,82.75
2023-01-02T04:26:12.064Z,82.70
2023-01-02T04:28:38.969Z,82.74
2023-01-02T04:31:19.663Z,82.22
2023-01-02T04:33:50.991Z,82.96
2023-01-02T04:36:17.848Z,82.44
2023-01-02T04:38:44.891Z,82.01
2023-01-02T04:41:12.716Z,82.77
2023-01-02T04:43:39.578Z,83.16
2023-01-02T04:46:06.396Z,82.83
2023-01-02T04:48:33.239Z,82.97
2023-01-02T04:51:00.083Z,82.08
2023-01-02T04:53:26.872Z,82.87
2023-01-02T04:55:57.593Z,82.45
2023-01-02T04:58:24.582Z,82.96
2023-01-02T05:00:51.389Z,82.73
2023-01-02T05:03:18.277Z,82.99
2023-01-02T05:05:45.118Z,83.02
2023-01-02T05:08:16.160Z,82.86
2023-01-02T05:10:43.370Z,83.55
2023-01-02T05:13:10.150Z,82.97
2023-01-02T05:15:36.954Z,83.23
2023-01-02T05:18:03.789Z,82.62
2023-01-02T05:20:30.619Z,82.87
2023-01-02T05:23:15.987Z,82.72
2023-01-02T05:25:42.821Z,83.04
2023-01-02T05:28:09.564Z,82.95
2023-01-02T05:30:38.016Z,82.53
2023-01-02T05:33:04.888Z,83.16
2023-01-02T05:35:33.339Z,83.41
2023-01-02T05:38:00.803Z,82.89
2023-01-02T05:40:27.543Z,82.31
2023-01-02T05:42:54.386Z,83.09
2023-01-02T05:45:21.140Z,82.49
2023-01-02T05:47:47.874Z,82.99
2023-01-02T05:50:14.681Z,83.18
2023-01-02T05:52:45.516Z,83.43
2023-01-02T05:55:12.923Z,82.65
2023-01-02T05:57:41.790Z,83.28
2023-01-02T06:00:08.893Z,82.95
2023-01-02T06:02:41.109Z,83.38
2023-01-02T06:05:11.059Z,82.31
2023-01-02T06:07:37.842Z,83.29
2023-01-02T06:10:05.185Z,83.63
2023-01-02T06:12:32.072Z,82.55
2023-01-02T06:14:58.800Z,82.66
2023-01-02T06:17:25.655Z,82.85
2023-01-02T06:19:57.988Z,82.43
2023-01-02T06:22:24.792Z,82.19
2023-01-02T06:24:51.534Z,82.92
2023-01-02T06:27:18.383Z,82.68
2023-01-02T06:29:45.154Z,83.12
2023-01-02T06:32:11.956Z,83.00
2023-01-02T06:34:38.742Z,83.22
2023-01-02T06:37:09.647Z,82.92
2023-01-02T06:39:37.803Z,82.58
2023-01-02T06:42:05.428Z,82.52
2023-01-02T06:44:32.301Z,82.94
2023-01-02T06:46:59.075Z,82.39
2023-01-02T06:49:25.884Z,82.73
2023-01-02T06:51:52.655Z,83.68
2023-01-02T06:54:19.458Z,82.77
2023-01-02T06:56:46.213Z,83.00
2023-01-02T06:59:13.073Z,82.96
2023-01-02T07:01:39.953Z,83.06
2023-01-02T07:04:06.795Z,82.68
2023-01-02T07:06:34.433Z,83.29
2023-01-02T07:09:01.177Z,82.79
2023-01-02T07:11:27.965Z,82.77
2023-01-02T07:13:54.996Z,83.41
2023-01-02T07:16:22.157Z,83.04
2023-01-02T07:18:48.903Z,83.32
2023-01-02T07:21:16.020Z,82.74
2023-01-02T07:23:42.843Z,83.29
2023-01-02T07:26:09.773Z,82.95
2023-01-02T07:28:36.585Z,82.95
2023-01-02T07:31:04.625Z,83.76
2023-01-02T07:33:31.497Z,83.61
2023-01-02T07:35:59.345Z,83.28
2023-01-02T07:38:26.361Z,83.25
2023-01-02T07:40:53.190Z,83.00
2023-01-02T07:43:20.353Z,83.12
2023-01-02T07:45:50.392Z,83.60
2023-01-02T07:48:17.659Z,83.44
2023-01-02T07:50:44.445Z,83.26
2023-01-02T07:53:11.288Z,82.57
2023-01-02T07:55:38.113Z,83.91
2023-01-02T07:58:04.923Z,83.20
2023-01-02T08:00:31.665Z,83.83
2023-01-02T08:02:58.467Z,83.36
2023-01-02T08:05:25.234Z,83.70
2023-01-02T08:07:52.310Z,83.76
2023-01-02T08:10:19.102Z,84.46
2023-01-02T08:12:45.864Z,83.37
2023-01-02T08:15:12.680Z,83.09
2023-01-02T08:17:41.598Z,83.84
2023-01-02T08:20:09.074Z,83.54
2023-01-02T08:22:36.030Z,83.72
2023-01-02T08:25:02.951Z,83.92
2023-01-02T08:27:29.818Z,84.30
2023-01-02T08:29:56.626Z,83.31
2023-01-02T08:32:23.418Z,83.95
2023-01-02T08:34:50.375Z,84.15
2023-01-02T08:37:17.120Z,83.21
2023-01-02T08:39:43.961Z,83.31
2023-01-02T08:42:10.679Z,84.21
2023-01-02T08:44:40.532Z,84.07
2023-01-02T08:47:07.433Z,83.81
2023-01-02T08:49:34.210Z,83.88
2023-01-02T08:52:01.064Z,83.60
2023-01-02T08:54:27.781Z,83.13
2023-01-02T08:56:54.581Z,83.95
2023-01-02T08:59:22.513Z,83.95
2023-01-02T09:01:49.600Z,84.03
2023-01-02T09:04:16.483Z,83.68
2023-01-02T09:06:43.454Z,84.37
2023-01-02T09:09:12.306Z,83.66
2023-01-02T09:11:42.880Z,83.54
2023-01-02T09:14:09.722Z,83.62
2023-01-02T09:16:36.544Z,83.90
2023-01-02T09:19:03.464Z,83.67
2023-01-02T09:21:30.283Z,84.25
2023-01-02T09:23:57.087Z,84.01
2023-01-02T09:26:24.096Z,84.24
2023-01-02T09:28:50.829Z,84.07
2023-01-02T09:31:17.909Z,84.09
2023-01-02T09:33:45.053Z,83.63
2023-01-02T09:36:12.653Z,83.91
2023-01-02T09:38:39.457Z,84.00
2023-01-02T09:41:11.172Z,84.30
2023-01-02T09:43:39.900Z,84.50
2023-01-02T09:46:07.105Z,84.96
2023-01-02T09:48:35.384Z,84.55
2023-01-02T09:51:07.793Z,84.63
2023-01-02T09:53:34.921Z,84.67
2023-01-02T09:56:04.852Z,84.45
2023-01-02T09:58:37.653Z,84.83
2023-01-02T10:01:04.601Z,84.85
2023-01-02T10:03:36.326Z,84.97
2023-01-02T10:06:06.367Z,84.84
2023-01-02T10:08:33.510Z,84.69
2023-01-02T10:11:18.794Z,85.04
2023-01-02T10:16:38.492Z,84.79
2023-01-02T10:19:06.981Z,85.21
2023-01-02T10:21:34.603Z,86.02
2023-01-02T10:24:10.100Z,85.40
2023-01-02T10:26:37.317Z,85.68
2023-01-02T10:29:07.174Z,85.83
2023-01-02T10:31:52.779Z,85.10
2023-01-02T10:34:20.820Z,85.06
2023-01-02T10:36:47.621Z,86.35
2023-01-02T10:39:15.606Z,86.32
2023-01-02T10:41:42.396Z,86.51
2023-01-02T10:44:13.025Z,85.45
2023-01-02T10:46:40.069Z,86.75
2023-01-02T10:49:07.623Z,86.31
2023-01-02T10:51:34.691Z,85.53
2023-01-02T10:54:05.586Z,85.42
2023-01-02T10:56:32.897Z,85.33
2023-01-02T10:58:59.780Z,85.35
2023-01-02T11:01:26.660Z,85.95
2023-01-02T11:03:57.764Z,85.74
2023-01-02T11:06:28.468Z,86.07
2023-01-02T11:08:58.292Z,85.90
2023-01-02T11:11:25.334Z,86.46
2023-01-02T11:13:54.570Z,86.60
2023-01-02T11:16:22.372Z,86.73
2023-01-02T11:18:50.014Z,85.86
2023-01-02T11:21:16.914Z,85.64
2023-01-02T11:23:44.057Z,86.27
2023-01-02T11:26:12.810Z,85.04
2023-01-02T11:28:39.724Z,85.31
2023-01-02T11:31:07.956Z,84.81
2023-01-02T11:33:35.529Z,84.97
2023-01-02T11:36:03.648Z,85.12
2023-01-02T11:38:42.617Z,85.11
2023-01-02T11:41:21.685Z,85.77
2023-01-02T11:43:52.007Z,86.40
2023-01-02T11:46:25.070Z,86.82
2023-01-02T11:48:52.586Z,86.74
2023-01-02T11:51:19.372Z,85.86
2023-01-02T11:53:47.655Z,87.42
2023-01-02T11:56:20.341Z,87.19
2023-01-02T11:58:55.822Z,87.21
2023-01-02T12:01:25.887Z,87.55
2023-01-02T12:03:52.917Z,86.71
2023-01-02T12:06:23.842Z,86.80
2023-01-02T12:09:03.558Z,86.53
2023-01-02T12:11:41.756Z,86.97
2023-01-02T12:14:18.932Z,87.71
2023-01-02T12:16:51.126Z,86.96
2023-01-02T12:19:21.035Z,87.67
2023-01-02T12:22:06.450Z,87.97
2023-01-02T12:24:39.419Z,88.57
2023-01-02T12:27:06.292Z,88.46
2023-01-02T12:29:52.719Z,88.44
2023-01-02T12:32:22.417Z,88.25
2023-01-02T12:35:07.839Z,89.23
2023-01-02T12:37:54.716Z,89.27
2023-01-02T12:40:29.716Z,89.74
2023-01-02T12:43:19.346Z,88.96
2023-01-02T12:46:05.046Z,89.86
2023-01-02T12:48:36.463Z,89.48
2023-01-02T12:51:09.940Z,90.15
2023-01-02T12:54:18.614Z,89.82
2023-01-02T12:56:44.636Z,89.72
2023-01-02T12:59:29.902Z,90.89
2023-01-02T13:02:00.518Z,90.92
2023-01-02T13:04:27.541Z,90.21
2023-01-02T13:06:58.884Z,90.31
2023-01-02T13:09:34.940Z,91.71
2023-01-02T13:12:02.021Z,90.90
2023-01-02T13:14:33.349Z,91.53
2023-01-02T13:17:04.751Z,90.93
2023-01-02T13:19:37.975Z,91.53
2023-01-02T13:22:11.367Z,91.88
2023-01-02T13:24:38.386Z,90.66
2023-01-02T13:27:05.316Z,91.56
2023-01-02T13:29:42.310Z,92.54
2023-01-02T13:32:09.927Z,92.50
2023-01-02T13:34:37.720Z,91.82
2023-01-02T13:37:07.198Z,91.27
2023-01-02T13:39:37.096Z,91.11
2023-01-02T13:42:22.442Z,92.00
2023-01-02T13:44:50.456Z,92.13
2023-01-02T13:47:34.560Z,91.85
2023-01-02T13:50:04.670Z,91.77
2023-01-02T13:52:31.715Z,91.21
2023-01-02T13:55:21.367Z,91.52
2023-01-02T13:57:54.300Z,91.33
2023-01-02T14:00:21.118Z,91.12
2023-01-02T14:03:17.333Z,90.75
2023-01-02T14:06:03.829Z,91.52
2023-01-02T14:08:30.853Z,91.01
2023-01-02T14:10:59.198Z,90.63
2023-01-02T14:13:29.819Z,91.12
2023-01-02T14:16:01.931Z,91.80
2023-01-02T14:18:30.688Z,91.98
2023-01-02T14:20:57.808Z,91.62
2023-01-02T14:23:31.756Z,91.30
2023-01-02T14:25:58.663Z,91.44
2023-01-02T14:28:26.440Z,91.84
2023-01-02T14:30:53.481Z,91.70
2023-01-02T14:33:31.402Z,91.69
2023-01-02T14:35:59.203Z,91.47
2023-01-02T14:38:26.977Z,91.07
2023-01-02T14:40:53.817Z,91.02
2023-01-02T14:43:32.722Z,90.31
2023-01-02T14:46:18.391Z,90.42
2023-01-02T14:48:51.260Z,89.82
2023-01-02T14:51:20.890Z,90.16
2023-01-02T14:53:52.189Z,89.08
2023-01-02T14:56:19.993Z,89.89
2023-01-02T14:58:49.859Z,89.44
2023-01-02T15:01:43.519Z,89.01
2023-01-02T15:04:23.443Z,89.37
2023-01-02T15:06:52.326Z,88.96
2023-01-02T15:09:22.237Z,88.50
2023-01-02T15:12:11.239Z,88.42
2023-01-02T15:14:38.664Z,88.67
2023-01-02T15:17:05.419Z,88.20
2023-01-02T15:19:32.528Z,88.04
2023-01-02T15:21:59.421Z,87.87
2023-01-02T15:24:26.781Z,88.26
2023-01-02T15:26:53.715Z,87.91
2023-01-02T15:29:24.858Z,88.04
2023-01-02T15:31:52.520Z,88.05
2023-01-02T15:34:23.770Z,87.67
2023-01-02T15:36:51.204Z,87.60
2023-01-02T15:39:18.607Z,87.61
2023-01-02T15:41:53.031Z,88.14
2023-01-02T15:44:46.347Z,88.46
2023-01-02T15:47:13.141Z,87.67
2023-01-02T15:49:40.920Z,87.78
2023-01-02T15:52:12.163Z,87.41
2023-01-02T15:54:38.961Z,87.60
2023-01-02T15:57:11.347Z,87.59
2023-01-02T15:59:39.013Z,87.48
2023-01-02T16:02:06.065Z,88.14
2023-01-02T16:04:33.330Z,87.73
2023-01-02T16:07:10.288Z,87.41
2023-01-02T16:09:38.219Z,87.69
2023-01-02T16:12:05.105Z,87.88
2023-01-02T16:14:31.976Z,87.56
2023-01-02T16:16:58.860Z,87.82
2023-01-02T16:19:33.195Z,88.13
2023-01-02T16:22:19.964Z,88.21
2023-01-02T16:24:50.664Z,87.88
2023-01-02T16:27:27.975Z,87.32
2023-01-02T16:29:55.185Z,86.55
2023-01-02T16:32:27.916Z,87.26
2023-01-02T16:35:01.106Z,87.48
2023-01-02T16:37:34.956Z,87.22
2023-01-02T16:41:01.782Z,87.40
2023-01-02T16:43:12.153Z,87.33
2023-01-02T16:45:39.364Z,86.58
2023-01-02T16:48:06.431Z,86.80
2023-01-02T16:50:33.230Z,87.09
2023-01-02T16:53:02.429Z,87.42
2023-01-02T16:55:29.232Z,87.44
2023-01-02T16:57:56.046Z,87.29
2023-01-02T17:00:23.145Z,86.65
2023-01-02T17:02:50.037Z,86.88
2023-01-02T17:05:26.401Z,86.91
2023-01-02T17:07:53.263Z,87.21
2023-01-02T17:10:21.086Z,87.47
2023-01-02T17:12:47.950Z,87.96
2023-01-02T17:15:15.223Z,87.65
2023-01-02T17:17:42.279Z,87.58
2023-01-02T17:20:09.745Z,87.37
2023-01-02T17:22:36.970Z,87.63
2023-01-02T17:25:04.141Z,87.42
2023-01-02T17:27:31.499Z,86.93
2023-01-02T17:29:58.443Z,86.93
2023-01-02T17:32:26.313Z,87.18
2023-01-02T17:34:53.415Z,86.82
2023-01-02T17:37:22.046Z,86.93
2023-01-02T17:39:48.894Z,86.52
2023-01-02T17:42:15.684Z,87.17
2023-01-02T17:44:42.481Z,87.35
2023-01-02T17:47:57.852Z,87.93
2023-01-02T17:49:56.147Z,87.30
2023-01-02T17:52:22.998Z,87.26
2023-01-02T17:54:56.191Z,87.39
2023-01-02T17:57:23.496Z,88.01
2023-01-02T17:59:51.338Z,87.92
2023-01-02T18:02:18.529Z,88.21
2023-01-02T18:04:52.660Z,88.56
2023-01-02T18:07:21.606Z,87.52
2023-01-02T18:10:07.784Z,88.70
2023-01-02T18:12:36.384Z,88.20
2023-01-02T18:15:04.664Z,87.62
2023-01-02T18:17:31.386Z,88.96
2023-01-02T18:19:58.340Z,90.15
2023-01-02T18:22:29.051Z,89.47
2023-01-02T18:24:55.932Z,89.54
2023-01-02T18:27:24.365Z,88.55
2023-01-02T18:29:58.449Z,89.35
2023-01-02T18:32:31.715Z,88.67
2023-01-02T18:35:00.491Z,88.78
2023-01-02T18:37:30.822Z,88.67
2023-01-02T18:39:57.658Z,88.77
2023-01-02T18:42:29.014Z,89.16
2023-01-02T18:44:57.256Z,89.20
2023-01-02T18:47:26.069Z,89.16
2023-01-02T18:49:53.080Z,88.32
2023-01-02T18:52:25.296Z,87.60
2023-01-02T18:54:55.252Z,87.32
2023-01-02T18:57:22.743Z,87.13
2023-01-02T18:59:50.313Z,86.70
2023-01-02T19:02:26.508Z,87.26
2023-01-02T19:04:53.431Z,87.02
2023-01-02T19:07:27.440Z,86.88
2023-01-02T19:09:58.127Z,85.81
2023-01-02T19:12:44.378Z,85.91
2023-01-02T19:15:30.465Z,85.81
2023-01-02T19:18:26.785Z,86.54
2023-01-02T19:20:56.198Z,85.92
2023-01-02T19:23:31.535Z,86.18
2023-01-02T19:26:08.167Z,85.67
2023-01-02T19:28:35.069Z,85.37
2023-01-02T19:31:01.934Z,85.39
2023-01-02T19:33:31.789Z,85.26
2023-01-02T19:36:00.311Z,86.21
2023-01-02T19:38:28.217Z,86.88
2023-01-02T19:40:55.172Z,85.59
2023-01-02T19:43:22.127Z,86.36
2023-01-02T19:45:48.987Z,86.10
2023-01-02T19:48:18.268Z,85.70
2023-01-02T19:50:45.395Z,85.91
2023-01-02T19:53:12.188Z,85.67
2023-01-02T19:55:39.045Z,86.40
2023-01-02T19:58:05.868Z,85.51
2023-01-02T20:00:32.757Z,85.58
2023-01-02T20:02:59.748Z,85.01
2023-01-02T20:05:28.806Z,85.57
2023-01-02T20:07:57.963Z,85.96
2023-01-02T20:10:24.814Z,86.22
2023-01-02T20:12:52.877Z,85.04
2023-01-02T20:15:23.605Z,84.92
2023-01-02T20:17:50.837Z,85.66
2023-01-02T20:20:18.657Z,85.42
2023-01-02T20:22:45.567Z,85.57
2023-01-02T20:25:13.039Z,85.33
2023-01-02T20:27:39.953Z,86.05
2023-01-02T20:30:08.765Z,86.19
2023-01-02T20:32:35.633Z,85.72
2023-01-02T20:35:02.468Z,84.91
2023-01-02T20:37:31.177Z,85.45
2023-01-02T20:39:57.965Z,85.55
2023-01-02T20:42:24.849Z,85.31
2023-01-02T20:44:51.771Z,86.42
2023-01-02T20:47:18.575Z,85.91
2023-01-02T20:49:45.419Z,85.57
2023-01-02T20:52:12.263Z,85.62
2023-01-02T20:54:42.330Z,85.54
2023-01-02T20:57:09.224Z,85.95
2023-01-02T20:59:36.117Z,85.51
2023-01-02T21:02:03.871Z,84.95
2023-01-02T21:04:36.127Z,85.58
2023-01-02T21:07:04.321Z,85.51
2023-01-02T21:09:31.498Z,85.38
2023-01-02T21:11:58.301Z,85.57
2023-01-02T21:14:25.253Z,86.66
2023-01-02T21:16:52.067Z,85.42
2023-01-02T21:19:18.918Z,85.18
2023-01-02T21:21:46.076Z,85.76
2023-01-02T21:24:12.864Z,85.54
2023-01-02T21:26:39.719Z,85.86
2023-01-02T21:29:06.716Z,85.17
2023-01-02T21:31:35.133Z,86.25
2023-01-02T21:34:02.025Z,86.17
2023-01-02T21:36:29.638Z,86.44
2023-01-02T21:38:59.393Z,86.15
2023-01-02T21:41:44.897Z,86.64
2023-01-02T21:44:11.716Z,86.35
2023-01-02T21:46:38.540Z,85.94
2023-01-02T21:49:05.422Z,85.17
2023-01-02T21:51:33.157Z,86.04
2023-01-02T21:54:00.097Z,86.74
2023-01-02T21:56:27.003Z,85.81
2023-01-02T21:58:55.166Z,86.00
2023-01-02T22:01:22.318Z,86.57
2023-01-02T22:03:49.533Z,86.42
2023-01-02T22:06:16.659Z,86.35
2023-01-02T22:08:43.582Z,86.79
2023-01-02T22:11:29.058Z,86.46
2023-01-02T22:13:55.923Z,87.08
2023-01-02T22:16:23.023Z,86.54
2023-01-02T22:18:50.847Z,86.75
2023-01-02T22:21:17.776Z,86.94
2023-01-02T22:23:44.588Z,87.07
2023-01-02T22:26:11.320Z,87.34
2023-01-02T22:28:38.235Z,87.46
2023-01-02T22:31:06.024Z,86.92
2023-01-02T22:33:33.818Z,86.42
2023-01-02T22:36:00.627Z,87.14
2023-01-02T22:38:27.453Z,87.44
2023-01-02T22:40:54.594Z,86.89
2023-01-02T22:43:24.571Z,87.86
2023-01-02T22:45:52.816Z,87.07
2023-01-02T22:48:27.307Z,87.38
2023-01-02T22:50:55.045Z,87.73
2023-01-02T22:53:23.097Z,88.13
2023-01-02T22:55:50.013Z,88.08
2023-01-02T22:58:17.028Z,87.48
2023-01-02T23:00:44.592Z,87.41
2023-01-02T23:03:14.845Z,87.71
2023-01-02T23:05:41.831Z,87.52
2023-01-02T23:08:08.703Z,87.71
2023-01-02T23:10:35.691Z,87.85
2023-01-02T23:13:02.551Z,87.51
2023-01-02T23:15:29.421Z,87.73
2023-01-02T23:18:15.037Z,87.34
2023-01-02T23:20:41.876Z,88.11
2023-01-02T23:23:08.700Z,87.93
2023-01-02T23:25:38.406Z,88.12
2023-01-02T23:28:05.355Z,88.17
2023-01-02T23:30:32.231Z,87.89
2023-01-02T23:32:59.032Z,88.17
2023-01-02T23:35:26.254Z,87.54
2023-01-02T23:37:53.088Z,87.63
2023-01-02T23:40:19.950Z,87.68
2023-01-02T23:42:46.751Z,88.45
2023-01-02T23:45:13.570Z,88.74
2023-01-02T23:47:40.352Z,87.99
2023-01-02T23:50:07.287Z,87.86
2023-01-02T23:52:34.092Z,87.97
2023-01-02T23:55:00.911Z,88.29
2023-01-02T23:57:28.461Z,87.85
2023-01-02T23:59:55.273Z,87.98
